BGSF

Details ICAO BGSF (SFJ)
Name Kangerlussuaq
Region Greenland
Timezone America/Godthab (UTC-3.0)
Plans Departing 407
Arriving 436
Stats Elevation 165 ft / 50 m (AMSL)
Location 67.017000° -50.689300°
Runways 1
Magnetic Variation 28.633° W
Sunrise 2018-12-09 14:05:05 UTC / 2018-12-09 11:05:05 Local
Sunset 2018-12-09 16:27:59 UTC / 2018-12-09 13:27:59 Local
Advertisement - Login to hide

Runways

ID Width Length Bearing (true/mag) Surface Threshold Overrun Markings Lighting
10 197 ft / 60 m 9,171 ft / 2,795 m 61.58° / 90.21° ASPHALT 0 ft / 0 m 489 ft / 149 m PREC-APP EDGE THRESHOLD SSALR REIL-OMNI
28 197 ft / 60 m 9,171 ft / 2,795 m 241.63° / 270.26° ASPHALT 0 ft / 0 m 164 ft / 50 m PREC-APP EDGE THRESHOLD SSALF TDZ REIL-OMNI

Approach Navaids

Runway Type Ident Frequency Range Bearing (true/mag) Slope Elevation
10 DME ISF 109.55 MHz 18 nm / 33 km - - 172 ft / 52 m (AMSL)
10 LOC-LOC ISF 109.55 MHz 18 nm / 33 km 61.60° / 90.23° - 165 ft / 50 m (AMSL)

Map

Weather


0- 5 10 15 20 25 30 35+ Temperature / °C

Clouds and Precipitation
Forecast for 2018-12-10 00:00 UTC. Updated 3 hours ago

Ground ~20,000 ft ~40,000 ft Winds

METAR

BGSF 092350Z AUTO 06008KT 9999NDV BKN039/// M19/M22 Q1021

TAF

Not found

Frequencies

Tower 118.30 MHz
Approach 126.20 MHz APP/DEP
Warning: Do not use this data for real-world aviation or navigation. No guarantee of current accuracy is given.